createdAt,value
2022-12-24T00:01:07.862Z,63.71
2022-12-24T00:03:37.186Z,64.01
2022-12-24T00:06:09.391Z,64.13
2022-12-24T00:08:36.611Z,63.97
2022-12-24T00:11:03.689Z,64.45
2022-12-24T00:13:30.662Z,64.23
2022-12-24T00:15:57.605Z,64.57
2022-12-24T00:18:24.883Z,64.67
2022-12-24T00:20:55.013Z,64.92
2022-12-24T00:23:25.415Z,64.78
2022-12-24T00:25:52.670Z,65.16
2022-12-24T00:28:23.265Z,65.32
2022-12-24T00:30:50.323Z,65.80
2022-12-24T00:33:24.033Z,65.75
2022-12-24T00:35:53.013Z,66.35
2022-12-24T00:38:20.123Z,66.54
2022-12-24T00:40:47.152Z,66.08
2022-12-24T00:43:14.181Z,66.48
2022-12-24T00:45:41.153Z,66.76
2022-12-24T00:48:08.080Z,66.96
2022-12-24T00:50:35.106Z,67.01
2022-12-24T00:53:02.049Z,67.17
2022-12-24T00:55:30.702Z,67.39
2022-12-24T00:58:06.442Z,68.10
2022-12-24T01:00:34.112Z,68.15
2022-12-24T01:03:01.439Z,67.77
2022-12-24T01:05:28.869Z,67.41
2022-12-24T01:07:56.078Z,67.37
2022-12-24T01:10:33.082Z,66.97
2022-12-24T01:13:05.558Z,67.12
2022-12-24T01:15:32.830Z,66.72
2022-12-24T01:17:59.878Z,66.86
2022-12-24T01:20:31.775Z,66.76
2022-12-24T01:22:59.033Z,66.43
2022-12-24T01:25:28.367Z,65.93
2022-12-24T01:27:55.568Z,66.69
2022-12-24T01:30:25.325Z,67.15
2022-12-24T01:32:52.389Z,66.92
2022-12-24T01:35:19.628Z,65.83
2022-12-24T01:37:46.679Z,66.19
2022-12-24T01:40:47.452Z,66.56
2022-12-24T01:43:25.074Z,66.22
2022-12-24T01:45:56.435Z,66.31
2022-12-24T01:48:29.947Z,65.96
2022-12-24T01:51:15.545Z,65.54
2022-12-24T01:53:45.383Z,65.45
2022-12-24T01:56:13.573Z,64.74
2022-12-24T01:58:46.532Z,65.16
2022-12-24T02:01:13.671Z,65.15
2022-12-24T02:03:40.819Z,65.17
2022-12-24T02:06:10.663Z,64.91
2022-12-24T02:08:41.247Z,64.84
2022-12-24T02:11:22.063Z,65.35
2022-12-24T02:13:57.741Z,64.87
2022-12-24T02:16:43.145Z,64.61
2022-12-24T02:19:13.186Z,63.27
2022-12-24T02:22:02.803Z,63.99
2022-12-24T02:24:54.120Z,64.70
2022-12-24T02:27:59.403Z,64.49
2022-12-24T02:30:34.900Z,63.96
2022-12-24T02:33:12.981Z,64.17
2022-12-24T02:35:50.723Z,64.04
2022-12-24T02:38:31.840Z,63.84
2022-12-24T02:41:04.663Z,64.44
2022-12-24T02:43:36.074Z,64.62
2022-12-24T02:46:13.893Z,64.87
2022-12-24T02:48:46.765Z,64.49
2022-12-24T02:51:13.913Z,64.46
2022-12-24T02:53:41.585Z,64.19
2022-12-24T02:56:36.146Z,64.43
2022-12-24T02:59:39.263Z,64.25
2022-12-24T03:02:40.390Z,64.20
2022-12-24T03:05:24.019Z,63.96
2022-12-24T03:07:59.864Z,64.06
2022-12-24T03:10:34.851Z,63.84
2022-12-24T03:13:10.805Z,64.04
2022-12-24T03:15:39.718Z,63.99
2022-12-24T03:18:10.864Z,64.53
2022-12-24T03:20:42.114Z,64.52
2022-12-24T03:23:09.195Z,63.91
2022-12-24T03:25:40.479Z,63.66
2022-12-24T03:28:08.967Z,63.50
2022-12-24T03:30:39.124Z,63.68
2022-12-24T03:33:06.167Z,62.57
2022-12-24T03:35:33.221Z,63.12
2022-12-24T03:38:00.097Z,63.23
2022-12-24T03:40:27.008Z,63.54
2022-12-24T03:42:53.939Z,63.90
2022-12-24T03:45:20.893Z,63.58
2022-12-24T03:47:48.067Z,63.27
2022-12-24T03:50:15.224Z,62.88
2022-12-24T03:52:42.168Z,62.64
2022-12-24T03:55:09.263Z,62.91
2022-12-24T03:57:36.216Z,63.22
2022-12-24T04:00:05.474Z,62.25
2022-12-24T04:02:38.918Z,63.02
2022-12-24T04:05:07.056Z,63.27
2022-12-24T04:07:34.521Z,63.32
2022-12-24T04:10:01.423Z,63.26
2022-12-24T04:12:28.356Z,63.25
2022-12-24T04:14:55.363Z,63.29
2022-12-24T04:17:22.313Z,63.22
2022-12-24T04:19:49.297Z,63.19
2022-12-24T04:22:16.421Z,62.95
2022-12-24T04:24:43.373Z,62.92
2022-12-24T04:27:10.312Z,62.62
2022-12-24T04:29:37.212Z,62.64
2022-12-24T04:32:04.316Z,63.17
2022-12-24T04:34:31.292Z,62.74
2022-12-24T04:36:58.342Z,62.70
2022-12-24T04:39:25.373Z,63.20
2022-12-24T04:41:52.285Z,63.24
2022-12-24T04:44:19.219Z,62.50
2022-12-24T04:46:46.084Z,62.79
2022-12-24T04:49:13.164Z,62.64
2022-12-24T04:51:40.157Z,62.60
2022-12-24T04:54:07.175Z,62.81
2022-12-24T04:56:34.179Z,63.42
2022-12-24T04:59:01.818Z,62.66
2022-12-24T05:01:31.976Z,62.42
2022-12-24T05:03:59.499Z,62.80
2022-12-24T05:06:30.802Z,63.39
2022-12-24T05:08:59.432Z,63.13
2022-12-24T05:11:26.578Z,63.54
2022-12-24T05:13:53.525Z,63.22
2022-12-24T05:16:22.319Z,63.07
2022-12-24T05:18:49.788Z,62.45
2022-12-24T05:21:20.040Z,62.54
2022-12-24T05:24:06.428Z,62.85
2022-12-24T05:26:38.272Z,62.37
2022-12-24T05:29:06.171Z,60.90
2022-12-24T05:31:34.115Z,61.19
2022-12-24T05:34:01.632Z,61.92
2022-12-24T05:36:28.795Z,62.02
2022-12-24T05:38:55.855Z,61.86
2022-12-24T05:41:23.632Z,61.93
2022-12-24T05:43:50.686Z,62.34
2022-12-24T05:46:21.869Z,62.38
2022-12-24T05:48:49.525Z,61.97
2022-12-24T05:51:22.280Z,62.08
2022-12-24T05:53:50.978Z,62.39
2022-12-24T05:56:20.773Z,62.10
2022-12-24T05:58:48.258Z,61.45
2022-12-24T06:01:15.775Z,61.52
2022-12-24T06:03:42.901Z,61.47
2022-12-24T06:06:11.287Z,61.53
2022-12-24T06:08:39.155Z,62.11
2022-12-24T06:11:08.844Z,61.69
2022-12-24T06:13:36.431Z,62.72
2022-12-24T06:16:05.582Z,62.68
2022-12-24T06:18:34.207Z,62.43
2022-12-24T06:21:02.320Z,62.64
2022-12-24T06:23:31.834Z,62.29
2022-12-24T06:26:03.137Z,62.96
2022-12-24T06:28:36.277Z,63.15
2022-12-24T06:31:04.570Z,62.49
2022-12-24T06:33:32.736Z,63.01
2022-12-24T06:35:59.998Z,63.22
2022-12-24T06:38:26.949Z,63.33
2022-12-24T06:40:56.008Z,63.47
2022-12-24T06:43:23.266Z,63.49
2022-12-24T06:45:50.462Z,63.62
2022-12-24T06:48:17.975Z,63.57
2022-12-24T06:50:45.466Z,63.91
2022-12-24T06:53:12.429Z,64.31
2022-12-24T06:55:39.415Z,64.24
2022-12-24T06:58:06.434Z,63.94
2022-12-24T07:00:33.666Z,63.91
2022-12-24T07:03:00.750Z,63.07
2022-12-24T07:05:28.075Z,63.84
2022-12-24T07:07:55.159Z,64.27
2022-12-24T07:10:22.782Z,64.40
2022-12-24T07:12:49.722Z,64.80
2022-12-24T07:15:17.307Z,65.17
2022-12-24T07:17:44.655Z,64.88
2022-12-24T07:20:15.181Z,64.59
2022-12-24T07:22:43.351Z,64.36
2022-12-24T07:25:11.806Z,64.70
2022-12-24T07:27:39.635Z,65.41
2022-12-24T07:30:07.737Z,65.37
2022-12-24T07:32:34.800Z,65.85
2022-12-24T07:35:01.825Z,67.38
2022-12-24T07:37:28.931Z,67.61
2022-12-24T07:39:55.958Z,69.01
2022-12-24T07:42:22.973Z,67.56
2022-12-24T07:44:50.009Z,67.18
2022-12-24T07:47:17.089Z,67.17
2022-12-24T07:49:44.024Z,66.20
2022-12-24T07:52:11.025Z,67.42
2022-12-24T07:54:37.985Z,67.83
2022-12-24T07:57:04.977Z,68.49
2022-12-24T07:59:32.004Z,69.84
2022-12-24T08:01:59.103Z,69.71
2022-12-24T08:04:26.181Z,68.86
2022-12-24T08:06:53.051Z,68.16
2022-12-24T08:09:19.918Z,68.15
2022-12-24T08:11:51.928Z,67.15
2022-12-24T08:14:20.055Z,66.05
2022-12-24T08:16:47.178Z,66.25
2022-12-24T08:19:14.337Z,67.01
2022-12-24T08:21:41.331Z,66.55
2022-12-24T08:24:08.500Z,66.77
2022-12-24T08:26:35.736Z,66.82
2022-12-24T08:29:04.047Z,66.37
2022-12-24T08:31:36.552Z,64.43
2022-12-24T08:34:08.292Z,64.87
2022-12-24T08:36:35.893Z,62.84
2022-12-24T08:39:03.852Z,64.00
2022-12-24T08:41:32.176Z,64.63
2022-12-24T08:43:59.263Z,64.94
2022-12-24T08:46:26.770Z,65.40
2022-12-24T08:48:53.887Z,65.51
2022-12-24T08:51:20.828Z,65.27
2022-12-24T08:53:47.943Z,64.44
2022-12-24T08:56:15.064Z,63.84
2022-12-24T08:58:42.328Z,63.39
2022-12-24T09:01:14.900Z,63.79
2022-12-24T09:03:42.539Z,62.55
2022-12-24T09:06:10.521Z,64.20
2022-12-24T09:08:37.937Z,64.32
2022-12-24T09:11:10.773Z,63.17
2022-12-24T09:13:38.255Z,62.79
2022-12-24T09:16:06.206Z,62.82
2022-12-24T09:18:33.485Z,63.21
2022-12-24T09:21:06.563Z,63.20
2022-12-24T09:23:36.144Z,63.52
2022-12-24T09:26:13.725Z,62.26
2022-12-24T09:28:40.852Z,60.70
2022-12-24T09:31:07.969Z,60.46
2022-12-24T09:33:37.449Z,62.20
2022-12-24T09:36:05.565Z,65.07
2022-12-24T09:38:33.566Z,64.38
2022-12-24T09:41:07.115Z,63.84
2022-12-24T09:43:37.926Z,62.43
2022-12-24T09:46:08.210Z,61.62
2022-12-24T09:48:39.641Z,61.61
2022-12-24T09:51:09.861Z,59.67
2022-12-24T09:53:40.757Z,59.54
2022-12-24T09:56:41.801Z,59.48
2022-12-24T09:59:18.294Z,57.98
2022-12-24T10:01:45.488Z,57.15
2022-12-24T10:04:22.027Z,55.53
2022-12-24T10:07:03.007Z,54.71
2022-12-24T10:09:48.211Z,54.71
2022-12-24T10:12:18.098Z,54.64
2022-12-24T10:15:10.311Z,55.51
2022-12-24T10:18:11.478Z,50.08
2022-12-24T10:20:45.647Z,51.69
2022-12-24T10:23:38.605Z,50.76
2022-12-24T10:26:14.537Z,51.63
2022-12-24T10:28:47.375Z,49.59
2022-12-24T10:31:15.349Z,49.06
2022-12-24T10:33:43.912Z,48.27
2022-12-24T10:36:19.283Z,48.10
2022-12-24T10:38:46.740Z,46.82
2022-12-24T10:41:15.466Z,46.06
2022-12-24T10:43:45.195Z,47.99
2022-12-24T10:46:39.349Z,48.33
2022-12-24T10:49:12.947Z,43.99
2022-12-24T10:51:48.547Z,45.13
2022-12-24T10:54:26.560Z,46.69
2022-12-24T10:57:00.376Z,47.39
2022-12-24T10:59:50.398Z,45.58
2022-12-24T11:02:38.783Z,45.82
2022-12-24T11:05:34.558Z,45.60
2022-12-24T11:08:06.638Z,45.72
2022-12-24T11:10:37.016Z,46.89
2022-12-24T11:13:36.441Z,46.16
2022-12-24T11:16:02.080Z,45.51
2022-12-24T11:18:29.775Z,45.25
2022-12-24T11:20:59.656Z,46.18
2022-12-24T11:23:28.514Z,46.26
2022-12-24T11:25:57.253Z,45.65
2022-12-24T11:28:33.653Z,44.74
2022-12-24T11:31:20.839Z,44.86
2022-12-24T11:33:51.320Z,44.41
2022-12-24T11:36:22.146Z,44.16
2022-12-24T11:38:59.253Z,44.12
2022-12-24T11:41:26.843Z,45.03
2022-12-24T11:44:04.014Z,46.67
2022-12-24T11:46:43.689Z,46.86
2022-12-24T11:49:22.387Z,46.36
2022-12-24T11:52:10.387Z,43.54
2022-12-24T11:55:13.747Z,44.80
2022-12-24T11:58:00.748Z,46.02
2022-12-24T12:00:28.845Z,47.49
2022-12-24T12:02:59.487Z,47.39
2022-12-24T12:05:33.949Z,46.45
2022-12-24T12:08:30.565Z,47.12
2022-12-24T12:11:00.115Z,46.43
2022-12-24T12:13:33.414Z,48.52
2022-12-24T12:16:57.397Z,48.47
2022-12-24T12:19:26.162Z,48.55
2022-12-24T12:21:53.343Z,48.15
2022-12-24T12:24:32.424Z,48.01
2022-12-24T12:27:40.387Z,46.75
2022-12-24T12:30:17.942Z,46.88
2022-12-24T12:33:22.531Z,47.64
2022-12-24T12:35:51.065Z,47.07
2022-12-24T12:38:29.294Z,47.22
2022-12-24T12:41:20.756Z,46.58
2022-12-24T12:44:02.662Z,47.56
2022-12-24T12:46:54.743Z,47.74
2022-12-24T12:49:40.453Z,47.87
2022-12-24T12:52:33.899Z,47.80
2022-12-24T12:55:24.728Z,47.59
2022-12-24T12:57:58.098Z,46.14
2022-12-24T13:00:25.896Z,46.82
2022-12-24T13:03:05.217Z,47.21
2022-12-24T13:06:13.380Z,46.91
2022-12-24T13:08:58.466Z,46.29
2022-12-24T13:11:43.556Z,46.42
2022-12-24T13:14:22.881Z,47.59
2022-12-24T13:16:58.731Z,45.25
2022-12-24T13:19:49.849Z,45.04
2022-12-24T13:22:18.729Z,44.21
2022-12-24T13:24:54.357Z,44.80
2022-12-24T13:27:32.054Z,44.27
2022-12-24T13:30:27.634Z,44.30
2022-12-24T13:32:55.395Z,45.63
2022-12-24T13:35:22.435Z,45.79
2022-12-24T13:37:50.915Z,46.28
2022-12-24T13:40:26.912Z,44.79
2022-12-24T13:43:03.084Z,45.18
2022-12-24T13:45:30.306Z,45.40
2022-12-24T13:48:02.524Z,45.93
2022-12-24T13:50:41.539Z,46.63
2022-12-24T13:53:33.148Z,46.00
2022-12-24T13:56:17.884Z,47.12
2022-12-24T13:58:49.303Z,46.85
2022-12-24T14:01:35.610Z,46.89
2022-12-24T14:04:07.045Z,47.26
2022-12-24T14:06:38.041Z,47.36
2022-12-24T14:09:16.847Z,48.40
2022-12-24T14:11:58.934Z,46.56
2022-12-24T14:14:29.174Z,47.47
2022-12-24T14:17:00.416Z,48.28
2022-12-24T14:19:48.379Z,48.83
2022-12-24T14:22:38.864Z,49.34
2022-12-24T14:25:23.638Z,46.51
2022-12-24T14:28:06.108Z,46.57
2022-12-24T14:30:33.337Z,47.11
2022-12-24T14:33:00.281Z,47.74
2022-12-24T14:35:37.122Z,46.91
2022-12-24T14:38:08.126Z,47.24
2022-12-24T14:40:57.116Z,47.38
2022-12-24T14:43:43.192Z,47.75
2022-12-24T14:46:31.793Z,47.96
2022-12-24T14:49:28.244Z,48.15
2022-12-24T14:52:00.679Z,47.77
2022-12-24T14:54:37.686Z,47.90
2022-12-24T14:57:25.487Z,47.54
2022-12-24T15:00:02.339Z,47.65
2022-12-24T15:02:43.945Z,48.31
2022-12-24T15:05:12.742Z,48.30
2022-12-24T15:07:47.492Z,48.58
2022-12-24T15:10:42.841Z,48.42
2022-12-24T15:13:37.227Z,48.85
2022-12-24T15:16:08.714Z,48.48
2022-12-24T15:18:38.096Z,48.26
2022-12-24T15:21:08.049Z,48.27
2022-12-24T15:23:37.501Z,48.57
2022-12-24T15:26:09.100Z,48.09
2022-12-24T15:28:39.365Z,48.32
2022-12-24T15:31:22.014Z,47.94
2022-12-24T15:33:53.842Z,47.36
2022-12-24T15:36:34.587Z,48.21
2022-12-24T15:39:16.961Z,47.79
2022-12-24T15:42:04.515Z,48.03
2022-12-24T15:44:37.258Z,48.96
2022-12-24T15:47:07.828Z,49.97
2022-12-24T15:49:36.767Z,50.58
2022-12-24T15:52:06.882Z,50.62
2022-12-24T15:54:34.418Z,50.99
2022-12-24T15:57:21.627Z,51.34
2022-12-24T15:59:57.055Z,51.10
2022-12-24T16:02:36.196Z,51.01
2022-12-24T16:05:22.618Z,51.79
2022-12-24T16:08:22.614Z,51.93
2022-12-24T16:11:08.204Z,52.03
2022-12-24T16:13:43.995Z,51.71
2022-12-24T16:16:16.103Z,52.09
2022-12-24T16:18:43.446Z,50.19
2022-12-24T16:21:18.948Z,49.31
2022-12-24T16:23:48.836Z,50.44
2022-12-24T16:26:16.421Z,49.41
2022-12-24T16:28:43.487Z,49.09
2022-12-24T16:31:29.816Z,49.81
2022-12-24T16:33:59.121Z,49.42
2022-12-24T16:36:26.702Z,49.26
2022-12-24T16:39:12.270Z,50.02
2022-12-24T16:41:57.905Z,50.22
2022-12-24T16:44:24.949Z,50.85
2022-12-24T16:46:53.604Z,51.29
2022-12-24T16:49:22.547Z,50.38
2022-12-24T16:51:49.891Z,51.13
2022-12-24T16:54:16.940Z,52.01
2022-12-24T16:56:44.818Z,51.65
2022-12-24T16:59:20.650Z,52.10
2022-12-24T17:01:48.586Z,50.59
2022-12-24T17:04:17.390Z,50.88
2022-12-24T17:06:45.107Z,51.83
2022-12-24T17:09:12.978Z,52.30
2022-12-24T17:11:39.951Z,51.97
2022-12-24T17:14:09.954Z,51.78
2022-12-24T17:16:39.559Z,52.10
2022-12-24T17:19:06.745Z,52.34
2022-12-24T17:21:34.597Z,53.29
2022-12-24T17:24:01.629Z,53.18
2022-12-24T17:26:28.742Z,53.45
2022-12-24T17:28:57.018Z,53.61
2022-12-24T17:31:24.904Z,54.38
2022-12-24T17:33:53.046Z,54.11
2022-12-24T17:36:20.311Z,54.75
2022-12-24T17:38:47.625Z,54.50
2022-12-24T17:41:17.310Z,55.11
2022-12-24T17:43:44.726Z,55.47
2022-12-24T17:46:18.020Z,55.51
2022-12-24T17:48:45.420Z,56.54
2022-12-24T17:51:14.386Z,56.19
2022-12-24T17:53:42.954Z,56.29
2022-12-24T17:56:12.481Z,57.48
2022-12-24T17:58:43.825Z,57.85
2022-12-24T18:01:17.583Z,57.05
2022-12-24T18:03:45.885Z,57.04
2022-12-24T18:06:14.423Z,57.25
2022-12-24T18:08:42.723Z,57.26
2022-12-24T18:11:20.760Z,57.65
2022-12-24T18:13:48.922Z,58.34
2022-12-24T18:16:24.171Z,59.18
2022-12-24T18:18:52.188Z,59.85
2022-12-24T18:21:21.487Z,59.59
2022-12-24T18:23:50.811Z,59.93
2022-12-24T18:26:19.160Z,60.52
2022-12-24T18:28:47.480Z,60.73
2022-12-24T18:31:20.093Z,61.02
2022-12-24T18:33:48.963Z,62.29
2022-12-24T18:36:16.102Z,63.16
2022-12-24T18:38:42.996Z,64.08
2022-12-24T18:41:13.113Z,64.88
2022-12-24T18:43:41.565Z,65.08
2022-12-24T18:46:13.967Z,66.10
2022-12-24T18:48:41.065Z,66.95
2022-12-24T18:51:09.413Z,67.43
2022-12-24T18:53:39.499Z,67.18
2022-12-24T18:56:15.947Z,67.67
2022-12-24T18:58:44.024Z,67.75
2022-12-24T19:01:17.774Z,67.97
2022-12-24T19:03:45.700Z,68.30
2022-12-24T19:06:12.722Z,68.59
2022-12-24T19:08:57.221Z,68.89
2022-12-24T19:11:27.192Z,69.37
2022-12-24T19:13:54.216Z,69.93
2022-12-24T19:16:21.983Z,70.17
2022-12-24T19:18:49.620Z,70.36
2022-12-24T19:21:18.074Z,70.90
2022-12-24T19:23:46.306Z,71.58
2022-12-24T19:26:15.065Z,71.14
2022-12-24T19:28:42.886Z,71.98
2022-12-24T19:31:13.012Z,72.00
2022-12-24T19:33:43.755Z,72.81
2022-12-24T19:36:14.482Z,72.53
2022-12-24T19:38:41.744Z,72.66
2022-12-24T19:41:17.217Z,73.46
2022-12-24T19:43:47.217Z,74.18
2022-12-24T19:46:17.663Z,74.32
2022-12-24T19:48:50.271Z,74.73
2022-12-24T19:51:17.945Z,74.59
2022-12-24T19:53:45.095Z,74.35
2022-12-24T19:56:19.050Z,74.18
2022-12-24T19:58:46.328Z,74.55
2022-12-24T20:01:16.544Z,75.34
2022-12-24T20:03:45.243Z,75.10
2022-12-24T20:06:13.095Z,74.95
2022-12-24T20:08:40.760Z,74.70
2022-12-24T20:11:10.077Z,75.30
2022-12-24T20:13:38.395Z,76.31
2022-12-24T20:16:11.238Z,75.34
2022-12-24T20:18:38.395Z,74.57
2022-12-24T20:21:09.037Z,74.25
2022-12-24T20:23:40.774Z,73.71
2022-12-24T20:26:11.045Z,73.72
2022-12-24T20:28:38.775Z,73.22
2022-12-24T20:31:21.061Z,72.88
2022-12-24T20:33:48.968Z,72.62
2022-12-24T20:36:18.961Z,71.75
2022-12-24T20:38:46.954Z,71.72
2022-12-24T20:41:16.440Z,72.10
2022-12-24T20:43:48.315Z,71.37
2022-12-24T20:46:17.543Z,71.78
2022-12-24T20:48:45.182Z,71.84
2022-12-24T20:51:24.625Z,71.05
2022-12-24T20:53:53.818Z,70.99
2022-12-24T20:56:21.486Z,71.19
2022-12-24T20:58:48.759Z,70.88
2022-12-24T21:01:24.532Z,71.05
2022-12-24T21:03:53.735Z,70.74
2022-12-24T21:06:21.156Z,70.77
2022-12-24T21:08:52.744Z,70.79
2022-12-24T21:11:38.452Z,70.65
2022-12-24T21:14:05.829Z,70.72
2022-12-24T21:16:35.374Z,70.76
2022-12-24T21:19:02.625Z,70.11
2022-12-24T21:21:30.063Z,70.05
2022-12-24T21:23:57.421Z,70.34
2022-12-24T21:26:24.532Z,69.72
2022-12-24T21:28:51.705Z,70.17
2022-12-24T21:31:19.341Z,69.93
2022-12-24T21:33:46.555Z,70.55
2022-12-24T21:36:14.630Z,70.58
2022-12-24T21:38:42.387Z,70.11
2022-12-24T21:41:12.859Z,70.63
2022-12-24T21:43:43.021Z,70.46
2022-12-24T21:46:13.107Z,71.41
2022-12-24T21:48:58.818Z,71.59
2022-12-24T21:51:27.067Z,72.12
2022-12-24T21:54:13.779Z,73.33
2022-12-24T21:57:00.118Z,72.97
2022-12-24T21:59:27.559Z,73.63
2022-12-24T22:01:55.957Z,73.28
2022-12-24T22:04:23.811Z,73.65
2022-12-24T22:07:09.638Z,74.19
2022-12-24T22:09:57.102Z,73.83
2022-12-24T22:12:24.286Z,73.32
2022-12-24T22:14:52.102Z,73.79
2022-12-24T22:17:24.803Z,73.34
2022-12-24T22:19:53.796Z,72.74
2022-12-24T22:22:21.161Z,72.17
2022-12-24T22:24:48.216Z,72.71
2022-12-24T22:27:15.118Z,72.21
2022-12-24T22:29:42.147Z,72.48
2022-12-24T22:32:09.847Z,71.94
2022-12-24T22:34:36.803Z,71.74
2022-12-24T22:37:03.856Z,71.68
2022-12-24T22:39:30.979Z,70.97
2022-12-24T22:42:01.179Z,70.72
2022-12-24T22:44:28.235Z,70.97
2022-12-24T22:46:55.479Z,70.82
2022-12-24T22:49:22.526Z,69.91
2022-12-24T22:51:49.623Z,69.04
2022-12-24T22:54:16.787Z,68.47
2022-12-24T22:56:43.878Z,68.30
2022-12-24T22:59:14.010Z,67.60
2022-12-24T23:01:43.586Z,66.25
2022-12-24T23:04:11.493Z,66.35
2022-12-24T23:06:39.111Z,66.11
2022-12-24T23:09:08.271Z,66.36
2022-12-24T23:11:35.595Z,64.82
2022-12-24T23:14:21.138Z,65.00
2022-12-24T23:16:48.208Z,64.62
2022-12-24T23:19:18.553Z,64.55
2022-12-24T23:21:45.565Z,64.51
2022-12-24T23:24:12.573Z,65.55
2022-12-24T23:26:40.335Z,65.51
2022-12-24T23:29:07.307Z,65.76
2022-12-24T23:31:35.070Z,65.84
2022-12-24T23:34:02.183Z,65.68
2022-12-24T23:36:29.322Z,65.79
2022-12-24T23:38:57.704Z,65.83
2022-12-24T23:41:24.720Z,65.32
2022-12-24T23:43:52.221Z,64.97
2022-12-24T23:46:20.518Z,64.69
2022-12-24T23:48:48.126Z,64.67
2022-12-24T23:51:23.739Z,64.58
2022-12-24T23:53:52.484Z,65.05
2022-12-24T23:56:20.860Z,65.15
2022-12-24T23:58:48.259Z,64.82
